Time;durP1;ratioP1;P1;durP2;ratioP2;P2;SDS_P1;SDS_P2;PMS_P1;PMS_P2;Temp;Humidity;BMP_temperature;BMP_pressure;BME280_temperature;BME280_humidity;BME280_pressure;Samples;Min_cycle;Max_cycle;Signal;HPM_P1;HPM_P2
2021/11/26 00:01:41;;;;;;;12.88;4.90;;;;;;;;;;5050888;28;20055;-69
2021/11/26 00:04:08;;;;;;;18.13;5.47;;;;;;;;;;5052634;28;20045;-70
2021/11/26 00:06:35;;;;;;;13.30;5.28;;;;;;;;;;5055079;28;20049;-70
2021/11/26 00:09:01;;;;;;;14.38;5.20;;;;;;;;;;5050539;28;20040;-72
2021/11/26 00:11:28;;;;;;;16.15;5.60;;;;;;;;;;5040318;28;20052;-73
2021/11/26 00:16:41;;;;;;;13.07;5.07;;;;;;;;;;5053273;28;20063;-71
2021/11/26 00:19:08;;;;;;;13.25;4.80;;;;;;;;;;5046658;28;20429;-72
2021/11/26 00:21:35;;;;;;;20.50;4.90;;;;;;;;;;5058698;28;20442;-72
2021/11/26 00:24:02;;;;;;;18.40;6.20;;;;;;;;;;5057478;28;20508;-71
2021/11/26 00:26:29;;;;;;;12.98;4.80;;;;;;;;;;5051078;28;20493;-72
2021/11/26 00:28:55;;;;;;;14.07;5.13;;;;;;;;;;5059078;28;20098;-72
2021/11/26 00:31:22;;;;;;;14.50;5.03;;;;;;;;;;5046516;28;20486;-72
2021/11/26 00:33:48;;;;;;;17.15;5.10;;;;;;;;;;5054018;28;20425;-71
2021/11/26 00:36:14;;;;;;;13.50;4.97;;;;;;;;;;5051070;28;20063;-70
2021/11/26 00:38:41;;;;;;;12.13;4.47;;;;;;;;;;5058295;28;20055;-70
2021/11/26 00:41:07;;;;;;;19.83;5.15;;;;;;;;;;5058596;28;20044;-71
2021/11/26 00:43:34;;;;;;;11.63;4.60;;;;;;;;;;5045347;28;20044;-70
2021/11/26 00:46:00;;;;;;;10.43;4.15;;;;;;;;;;5050415;28;20044;-70
2021/11/26 00:48:27;;;;;;;16.95;5.00;;;;;;;;;;5047218;28;20856;-72
2021/11/26 00:50:53;;;;;;;13.73;5.00;;;;;;;;;;5056951;28;20067;-73
2021/11/26 00:53:19;;;;;;;17.88;5.20;;;;;;;;;;5030775;28;20060;-71
2021/11/26 00:55:46;;;;;;;15.75;5.35;;;;;;;;;;5059869;28;20079;-71
2021/11/26 00:58:12;;;;;;;15.93;5.35;;;;;;;;;;5059045;28;20099;-71
2021/11/26 01:00:38;;;;;;;14.50;5.28;;;;;;;;;;5051753;28;20493;-72
2021/11/26 01:03:05;;;;;;;13.75;4.70;;;;;;;;;;5059433;28;20048;-72
2021/11/26 01:05:32;;;;;;;14.05;4.40;;;;;;;;;;5050984;28;20127;-72
2021/11/26 01:07:58;;;;;;;17.58;5.38;;;;;;;;;;5037103;28;20480;-72
2021/11/26 01:10:25;;;;;;;19.75;4.80;;;;;;;;;;5047894;28;20493;-72
2021/11/26 01:12:52;;;;;;;16.52;5.22;;;;;;;;;;5038958;28;20083;-73
2021/11/26 01:15:20;;;;;;;12.38;4.78;;;;;;;;;;5059615;28;20056;-72
2021/11/26 01:17:47;;;;;;;13.57;4.78;;;;;;;;;;5052078;28;20052;-72
2021/11/26 01:20:14;;;;;;;16.83;4.90;;;;;;;;;;5059357;28;20850;-73
2021/11/26 01:22:41;;;;;;;11.55;5.07;;;;;;;;;;5045681;28;21331;-71
2021/11/26 01:25:08;;;;;;;14.75;6.18;;;;;;;;;;5053093;28;20049;-73
2021/11/26 01:27:35;;;;;;;16.23;5.35;;;;;;;;;;5052103;28;20053;-72
2021/11/26 01:30:11;;;;;;;14.48;6.00;;;;;;;;;;5055618;28;20056;-71
2021/11/26 01:32:37;;;;;;;15.40;5.40;;;;;;;;;;5055686;28;20053;-71
2021/11/26 01:35:03;;;;;;;20.10;6.43;;;;;;;;;;5054246;28;20052;-71
2021/11/26 01:37:30;;;;;;;14.93;4.97;;;;;;;;;;5052855;28;20080;-69
2021/11/26 01:39:56;;;;;;;14.48;4.75;;;;;;;;;;5044917;28;20049;-70
2021/11/26 01:42:22;;;;;;;16.02;5.50;;;;;;;;;;5056929;28;20087;-70
2021/11/26 01:44:49;;;;;;;9.55;4.70;;;;;;;;;;5047263;28;20056;-69
2021/11/26 01:47:15;;;;;;;13.95;4.90;;;;;;;;;;5056117;28;20482;-69
2021/11/26 01:49:41;;;;;;;17.33;5.03;;;;;;;;;;5050313;28;20044;-69
2021/11/26 01:52:08;;;;;;;19.65;5.22;;;;;;;;;;5050651;28;20500;-69
2021/11/26 01:54:34;;;;;;;15.02;4.85;;;;;;;;;;5056816;28;20079;-69
2021/11/26 01:57:00;;;;;;;20.08;4.82;;;;;;;;;;5047007;28;20076;-70
2021/11/26 01:59:27;;;;;;;11.60;4.30;;;;;;;;;;5058673;28;20297;-71
2021/11/26 02:01:53;;;;;;;17.88;4.68;;;;;;;;;;5049711;28;20091;-70
2021/11/26 02:04:19;;;;;;;9.20;3.90;;;;;;;;;;5053373;28;20074;-70
2021/11/26 02:06:46;;;;;;;10.00;3.88;;;;;;;;;;5059496;28;20048;-70
2021/11/26 02:09:12;;;;;;;8.40;3.72;;;;;;;;;;5052440;28;20048;-69
2021/11/26 02:11:38;;;;;;;9.05;3.47;;;;;;;;;;5059862;28;20052;-69
2021/11/26 02:14:05;;;;;;;10.00;3.65;;;;;;;;;;5054784;28;20064;-69
2021/11/26 02:16:40;;;;;;;17.00;3.45;;;;;;;;;;5056370;28;20052;-70
2021/11/26 02:19:09;;;;;;;11.00;3.25;;;;;;;;;;5047145;28;20052;-70
2021/11/26 02:21:36;;;;;;;7.13;2.70;;;;;;;;;;5059155;28;20045;-70
2021/11/26 02:24:02;;;;;;;8.10;2.67;;;;;;;;;;5053870;28;20056;-70
2021/11/26 02:26:28;;;;;;;8.40;2.60;;;;;;;;;;5059735;28;20417;-70
2021/11/26 02:28:55;;;;;;;5.93;2.05;;;;;;;;;;5059792;28;20044;-70
2021/11/26 02:31:21;;;;;;;7.32;2.72;;;;;;;;;;5047859;28;20051;-70
2021/11/26 02:33:47;;;;;;;7.93;2.40;;;;;;;;;;5053477;28;20472;-69
2021/11/26 02:36:14;;;;;;;6.82;1.80;;;;;;;;;;5053281;28;20055;-69
2021/11/26 02:38:40;;;;;;;6.95;2.00;;;;;;;;;;5058289;28;20052;-69
2021/11/26 02:41:06;;;;;;;7.00;1.95;;;;;;;;;;5032693;28;20052;-69
2021/11/26 02:43:33;;;;;;;2.72;1.35;;;;;;;;;;5056758;28;20516;-69
2021/11/26 02:45:59;;;;;;;4.80;1.50;;;;;;;;;;5051251;28;20448;-69
2021/11/26 02:48:25;;;;;;;8.30;1.75;;;;;;;;;;5048930;28;20044;-70
2021/11/26 02:50:52;;;;;;;4.53;1.50;;;;;;;;;;5059362;28;20048;-69
2021/11/26 02:53:18;;;;;;;6.13;2.38;;;;;;;;;;5051280;28;20433;-70
2021/11/26 02:55:45;;;;;;;7.20;2.55;;;;;;;;;;5058530;28;20080;-69
2021/11/26 02:58:11;;;;;;;5.55;2.42;;;;;;;;;;5052494;28;20238;-70
2021/11/26 03:00:39;;;;;;;4.40;2.17;;;;;;;;;;5049676;28;20079;-70
2021/11/26 03:03:05;;;;;;;9.07;2.80;;;;;;;;;;5058022;28;20118;-69
2021/11/26 03:05:32;;;;;;;8.10;2.92;;;;;;;;;;5050443;28;20480;-69
2021/11/26 03:07:58;;;;;;;10.82;3.92;;;;;;;;;;5059759;28;20041;-69
2021/11/26 03:10:25;;;;;;;9.18;3.30;;;;;;;;;;5053002;28;20053;-70
2021/11/26 03:12:56;;;;;;;6.00;3.10;;;;;;;;;;5055653;28;20049;-70
2021/11/26 03:15:22;;;;;;;6.57;3.60;;;;;;;;;;5047613;28;20048;-69
2021/11/26 03:17:49;;;;;;;10.70;3.65;;;;;;;;;;5057614;28;20044;-69
2021/11/26 03:20:15;;;;;;;8.43;3.63;;;;;;;;;;5058710;28;20604;-69
2021/11/26 03:22:42;;;;;;;8.10;4.07;;;;;;;;;;5049691;28;20055;-70
2021/11/26 03:25:09;;;;;;;7.75;3.92;;;;;;;;;;5057104;28;20048;-69
2021/11/26 03:27:35;;;;;;;10.57;3.78;;;;;;;;;;5044166;28;20494;-69
2021/11/26 03:30:03;;;;;;;6.03;3.95;;;;;;;;;;5054375;28;20049;-69
2021/11/26 03:32:29;;;;;;;10.57;4.50;;;;;;;;;;5058474;28;20058;-69
2021/11/26 03:34:56;;;;;;;6.88;4.00;;;;;;;;;;5051064;28;20124;-69
2021/11/26 03:37:22;;;;;;;10.90;4.03;;;;;;;;;;5058658;28;20053;-70
2021/11/26 03:39:48;;;;;;;7.25;4.07;;;;;;;;;;5048406;28;20060;-69
2021/11/26 03:42:15;;;;;;;9.88;4.45;;;;;;;;;;5053434;28;20687;-69
2021/11/26 03:44:41;;;;;;;9.43;4.45;;;;;;;;;;5052476;28;20068;-69
2021/11/26 03:47:07;;;;;;;7.05;4.13;;;;;;;;;;5059949;28;20052;-69
2021/11/26 03:49:34;;;;;;;9.50;4.70;;;;;;;;;;5055111;28;20083;-69
2021/11/26 03:52:00;;;;;;;8.18;4.47;;;;;;;;;;5056501;28;20872;-69
2021/11/26 03:54:27;;;;;;;6.40;3.83;;;;;;;;;;5058357;28;20049;-69
2021/11/26 03:56:53;;;;;;;8.88;4.43;;;;;;;;;;5050964;28;20544;-69
2021/11/26 03:59:19;;;;;;;7.22;3.88;;;;;;;;;;5057941;28;20056;-70
2021/11/26 04:01:45;;;;;;;9.90;4.47;;;;;;;;;;5048747;28;20049;-69
2021/11/26 04:04:12;;;;;;;7.78;4.10;;;;;;;;;;5055443;28;20052;-70
2021/11/26 04:06:38;;;;;;;8.02;3.78;;;;;;;;;;5053156;28;20047;-69
2021/11/26 04:09:05;;;;;;;9.82;3.90;;;;;;;;;;5050028;28;20045;-69
2021/11/26 04:11:31;;;;;;;5.40;3.40;;;;;;;;;;5062446;28;20059;-69
2021/11/26 04:13:58;;;;;;;9.25;3.20;;;;;;;;;;5054950;28;20055;-69
2021/11/26 04:16:24;;;;;;;7.00;3.13;;;;;;;;;;5062719;28;20052;-70
2021/11/26 04:18:50;;;;;;;5.85;3.13;;;;;;;;;;5051209;28;20053;-69
2021/11/26 04:21:17;;;;;;;6.78;3.10;;;;;;;;;;5058763;28;20059;-69
2021/11/26 04:23:44;;;;;;;10.40;3.03;;;;;;;;;;5061172;28;20044;-69
2021/11/26 04:26:10;;;;;;;4.65;2.80;;;;;;;;;;5059169;28;20048;-70
2021/11/26 04:28:37;;;;;;;5.13;3.15;;;;;;;;;;5062407;28;20052;-70
2021/11/26 04:31:03;;;;;;;6.60;2.53;;;;;;;;;;5053483;28;20051;-69
2021/11/26 04:33:32;;;;;;;8.45;2.60;;;;;;;;;;5054893;28;20048;-69
2021/11/26 04:35:58;;;;;;;8.20;2.10;;;;;;;;;;5051597;28;20148;-69
2021/11/26 04:38:25;;;;;;;8.05;2.17;;;;;;;;;;5060448;28;20645;-69
2021/11/26 04:40:51;;;;;;;5.05;2.10;;;;;;;;;;5060186;28;20055;-69
2021/11/26 04:43:17;;;;;;;5.25;2.03;;;;;;;;;;5054292;28;20053;-69
2021/11/26 04:45:46;;;;;;;7.07;2.38;;;;;;;;;;5054987;28;20048;-69
2021/11/26 04:48:13;;;;;;;4.53;1.60;;;;;;;;;;5047422;28;20050;-69
2021/11/26 04:50:39;;;;;;;6.63;1.45;;;;;;;;;;5060424;28;20049;-69
2021/11/26 04:53:05;;;;;;;7.00;2.20;;;;;;;;;;5052437;28;20052;-69
2021/11/26 04:55:32;;;;;;;4.00;1.70;;;;;;;;;;5060414;28;20165;-69
2021/11/26 04:57:58;;;;;;;5.22;1.40;;;;;;;;;;5054889;28;20065;-69
2021/11/26 05:00:24;;;;;;;4.70;1.80;;;;;;;;;;5051847;28;20143;-69
2021/11/26 05:02:51;;;;;;;6.38;1.58;;;;;;;;;;5060377;28;20155;-69
2021/11/26 05:05:17;;;;;;;7.40;1.10;;;;;;;;;;5052326;28;20044;-69
2021/11/26 05:07:44;;;;;;;5.18;1.35;;;;;;;;;;5060039;28;20462;-69
2021/11/26 05:10:10;;;;;;;7.18;1.60;;;;;;;;;;5052148;28;20051;-69
2021/11/26 05:12:53;;;;;;;6.80;1.30;;;;;;;;;;5055047;28;20052;-69
2021/11/26 05:15:24;;;;;;;7.43;1.30;;;;;;;;;;5050260;28;20083;-70
2021/11/26 05:17:55;;;;;;;5.15;1.10;;;;;;;;;;5059420;28;20054;-70
2021/11/26 05:20:21;;;;;;;5.80;1.33;;;;;;;;;;5061447;28;20052;-70
2021/11/26 05:22:48;;;;;;;4.07;1.10;;;;;;;;;;5053179;28;20056;-69
2021/11/26 05:25:15;;;;;;;3.22;1.08;;;;;;;;;;5060402;28;20379;-69
2021/11/26 05:27:41;;;;;;;3.53;1.20;;;;;;;;;;5046789;28;20052;-69
2021/11/26 05:30:09;;;;;;;3.67;0.90;;;;;;;;;;5058784;28;20052;-69
2021/11/26 05:32:37;;;;;;;3.45;1.15;;;;;;;;;;5053595;28;20139;-69
2021/11/26 05:35:08;;;;;;;5.78;1.02;;;;;;;;;;5061388;28;20045;-69
2021/11/26 05:37:34;;;;;;;5.18;0.88;;;;;;;;;;5060554;28;20044;-70
2021/11/26 05:40:01;;;;;;;6.90;1.48;;;;;;;;;;5050935;28;20044;-69
2021/11/26 05:42:28;;;;;;;2.92;0.90;;;;;;;;;;5058826;28;20139;-70
2021/11/26 05:44:54;;;;;;;2.92;1.17;;;;;;;;;;5033879;28;20044;-69
2021/11/26 05:47:20;;;;;;;5.65;0.93;;;;;;;;;;5060267;28;20588;-69
2021/11/26 05:49:46;;;;;;;5.60;1.00;;;;;;;;;;5054918;28;20068;-69
2021/11/26 05:52:13;;;;;;;5.35;1.70;;;;;;;;;;5060493;28;20059;-70
2021/11/26 05:54:39;;;;;;;6.05;1.10;;;;;;;;;;5054076;28;20063;-69
2021/11/26 05:57:06;;;;;;;5.47;1.40;;;;;;;;;;5052465;28;20052;-70
2021/11/26 05:59:32;;;;;;;3.25;0.93;;;;;;;;;;5060963;28;20063;-70
2021/11/26 06:01:58;;;;;;;2.55;0.95;;;;;;;;;;5053825;28;20048;-69
2021/11/26 06:04:26;;;;;;;5.57;1.42;;;;;;;;;;5060394;28;20052;-69
2021/11/26 06:06:52;;;;;;;7.72;1.80;;;;;;;;;;5031362;28;20048;-70
2021/11/26 06:09:18;;;;;;;7.68;1.88;;;;;;;;;;5056033;28;20040;-69
2021/11/26 06:11:45;;;;;;;4.50;1.58;;;;;;;;;;5060088;28;20054;-69
2021/11/26 06:14:11;;;;;;;5.10;1.42;;;;;;;;;;5054391;28;20401;-70
2021/11/26 06:16:37;;;;;;;7.03;1.90;;;;;;;;;;5059418;28;20055;-70
2021/11/26 06:19:04;;;;;;;3.80;1.50;;;;;;;;;;5054047;28;21329;-69
2021/11/26 06:21:30;;;;;;;6.85;2.05;;;;;;;;;;5055950;28;20087;-69
2021/11/26 06:23:57;;;;;;;13.98;2.42;;;;;;;;;;5030061;28;20053;-69
2021/11/26 06:26:24;;;;;;;6.28;2.00;;;;;;;;;;5060725;28;20052;-69
2021/11/26 06:28:50;;;;;;;3.97;1.92;;;;;;;;;;5057025;28;20055;-69
2021/11/26 06:31:16;;;;;;;6.32;2.40;;;;;;;;;;5057260;28;20058;-70
2021/11/26 06:33:43;;;;;;;7.18;2.63;;;;;;;;;;5059749;28;20045;-70
2021/11/26 06:36:09;;;;;;;8.73;2.33;;;;;;;;;;5045692;28;20060;-69
2021/11/26 06:38:35;;;;;;;11.40;2.83;;;;;;;;;;5057520;28;20715;-69
2021/11/26 06:41:02;;;;;;;14.25;2.88;;;;;;;;;;5052900;28;20044;-69
2021/11/26 06:43:28;;;;;;;7.90;2.42;;;;;;;;;;5058753;28;20306;-70
2021/11/26 06:45:55;;;;;;;9.65;2.65;;;;;;;;;;5058173;28;20433;-69
2021/11/26 06:48:25;;;;;;;9.02;3.22;;;;;;;;;;5048228;28;20048;-69
2021/11/26 06:50:51;;;;;;;9.00;3.33;;;;;;;;;;5053281;28;20040;-69
2021/11/26 06:53:17;;;;;;;8.00;2.42;;;;;;;;;;5032415;28;20048;-70
2021/11/26 06:55:44;;;;;;;9.77;3.28;;;;;;;;;;5060524;28;20114;-70
2021/11/26 06:58:11;;;;;;;11.63;3.08;;;;;;;;;;5035584;28;20486;-69
2021/11/26 07:00:37;;;;;;;11.38;3.60;;;;;;;;;;5059298;28;20478;-69
2021/11/26 07:03:04;;;;;;;10.60;3.25;;;;;;;;;;5053741;28;20501;-69
2021/11/26 07:05:30;;;;;;;8.40;3.35;;;;;;;;;;5043962;28;20053;-69
2021/11/26 07:07:56;;;;;;;13.02;3.50;;;;;;;;;;5055498;28;20051;-69
2021/11/26 07:10:23;;;;;;;9.88;2.80;;;;;;;;;;5049055;28;20580;-69
2021/11/26 07:12:49;;;;;;;11.32;3.53;;;;;;;;;;5037832;28;20056;-69
2021/11/26 07:15:16;;;;;;;12.25;3.42;;;;;;;;;;5031202;28;20162;-69
2021/11/26 07:17:43;;;;;;;10.68;3.78;;;;;;;;;;5051845;28;20056;-69
2021/11/26 07:20:10;;;;;;;16.10;4.20;;;;;;;;;;5049637;28;20071;-69
2021/11/26 07:22:36;;;;;;;15.93;4.18;;;;;;;;;;5053972;28;20409;-69
2021/11/26 07:25:03;;;;;;;10.98;4.13;;;;;;;;;;5059707;28;20565;-69
2021/11/26 07:27:29;;;;;;;9.90;3.88;;;;;;;;;;5055262;28;20051;-70
2021/11/26 07:29:56;;;;;;;14.20;4.32;;;;;;;;;;5059244;28;20052;-69
2021/11/26 07:32:22;;;;;;;14.27;4.00;;;;;;;;;;5045627;28;20059;-69
2021/11/26 07:34:49;;;;;;;13.02;4.60;;;;;;;;;;5058599;28;20048;-69
2021/11/26 07:37:17;;;;;;;15.95;4.75;;;;;;;;;;5054186;28;20053;-69
2021/11/26 07:39:43;;;;;;;17.25;4.47;;;;;;;;;;5038888;28;20511;-69
2021/11/26 07:42:11;;;;;;;10.25;4.55;;;;;;;;;;5058525;28;20075;-69
2021/11/26 07:44:38;;;;;;;11.48;4.80;;;;;;;;;;5045852;28;20561;-69
2021/11/26 07:47:05;;;;;;;15.68;4.80;;;;;;;;;;5056594;28;20098;-70
2021/11/26 07:49:32;;;;;;;12.90;4.28;;;;;;;;;;5052375;28;20098;-69
2021/11/26 07:51:59;;;;;;;16.45;5.57;;;;;;;;;;5062336;28;20076;-70
2021/11/26 07:54:26;;;;;;;14.43;5.30;;;;;;;;;;5058268;28;20032;-69
2021/11/26 07:56:53;;;;;;;14.95;5.47;;;;;;;;;;5062638;28;20060;-69
2021/11/26 07:59:19;;;;;;;15.77;5.80;;;;;;;;;;5059240;28;20062;-70
2021/11/26 08:01:47;;;;;;;10.25;4.63;;;;;;;;;;5050171;28;20053;-70
2021/11/26 08:04:15;;;;;;;20.23;6.03;;;;;;;;;;5063560;28;20055;-70
2021/11/26 08:06:45;;;;;;;16.17;5.17;;;;;;;;;;5055197;28;20152;-70
2021/11/26 08:09:17;;;;;;;13.77;5.47;;;;;;;;;;5063658;28;20997;-70
2021/11/26 08:11:44;;;;;;;22.88;5.10;;;;;;;;;;5053523;28;20048;-70
2021/11/26 08:14:11;;;;;;;16.50;4.80;;;;;;;;;;5055030;28;20071;-70
2021/11/26 08:16:37;;;;;;;18.70;6.03;;;;;;;;;;5062347;28;20132;-70
2021/11/26 08:19:04;;;;;;;10.15;4.35;;;;;;;;;;5056200;28;20048;-70
2021/11/26 08:21:30;;;;;;;16.15;5.13;;;;;;;;;;5063219;28;20075;-70
2021/11/26 08:23:57;;;;;;;14.60;5.10;;;;;;;;;;5036518;28;20493;-70
2021/11/26 08:26:23;;;;;;;21.05;5.78;;;;;;;;;;5054813;28;20040;-69
2021/11/26 08:28:49;;;;;;;14.93;5.47;;;;;;;;;;5048560;28;20744;-70
2021/11/26 08:31:17;;;;;;;16.42;5.03;;;;;;;;;;5060823;28;20055;-70
2021/11/26 08:33:43;;;;;;;19.67;5.85;;;;;;;;;;5059322;28;20670;-70
2021/11/26 08:36:09;;;;;;;19.25;5.97;;;;;;;;;;5050974;28;20339;-70
2021/11/26 08:38:36;;;;;;;23.52;5.53;;;;;;;;;;5042547;28;20044;-70
2021/11/26 08:41:02;;;;;;;23.98;5.97;;;;;;;;;;5046737;28;20048;-70
2021/11/26 08:43:29;;;;;;;20.23;6.70;;;;;;;;;;5057502;28;20440;-70
2021/11/26 08:45:55;;;;;;;18.63;5.82;;;;;;;;;;5053018;28;20508;-70
2021/11/26 08:48:21;;;;;;;18.48;5.68;;;;;;;;;;5060358;28;20417;-70
2021/11/26 08:50:51;;;;;;;21.23;5.20;;;;;;;;;;5060928;28;20165;-70
2021/11/26 08:53:19;;;;;;;22.45;5.80;;;;;;;;;;5050440;28;21261;-70
2021/11/26 08:55:50;;;;;;;20.60;5.72;;;;;;;;;;5056230;28;20037;-70
2021/11/26 08:58:16;;;;;;;21.70;5.82;;;;;;;;;;5055466;28;20325;-70
2021/11/26 09:00:43;;;;;;;18.77;5.10;;;;;;;;;;5061406;28;20045;-70
2021/11/26 09:03:10;;;;;;;21.65;5.95;;;;;;;;;;5054332;28;20045;-70
2021/11/26 09:05:37;;;;;;;21.30;5.80;;;;;;;;;;5061383;28;20051;-70
2021/11/26 09:08:03;;;;;;;24.65;6.20;;;;;;;;;;5055485;28;20066;-70
2021/11/26 09:10:31;;;;;;;17.85;4.50;;;;;;;;;;5030648;28;20056;-70
2021/11/26 09:12:58;;;;;;;20.48;6.32;;;;;;;;;;5061275;28;21160;-70
2021/11/26 09:15:24;;;;;;;32.95;6.25;;;;;;;;;;5055154;28;20056;-70
2021/11/26 09:17:51;;;;;;;20.58;5.32;;;;;;;;;;5062090;28;20053;-69
2021/11/26 09:20:17;;;;;;;23.58;7.07;;;;;;;;;;5055368;28;20055;-69
2021/11/26 09:22:44;;;;;;;21.08;6.25;;;;;;;;;;5057726;28;20052;-70
2021/11/26 09:25:11;;;;;;;13.52;4.55;;;;;;;;;;5036465;28;20053;-69
2021/11/26 09:27:37;;;;;;;17.10;5.35;;;;;;;;;;5056804;28;20088;-70
2021/11/26 09:30:05;;;;;;;23.80;5.22;;;;;;;;;;5061709;28;20048;-70
2021/11/26 09:32:31;;;;;;;21.55;5.88;;;;;;;;;;5053049;28;20044;-69
2021/11/26 09:34:58;;;;;;;19.95;5.32;;;;;;;;;;5060816;28;20412;-69
2021/11/26 09:37:24;;;;;;;22.70;6.00;;;;;;;;;;5047943;28;20302;-69
2021/11/26 09:39:50;;;;;;;20.65;5.72;;;;;;;;;;5059445;28;20056;-70
2021/11/26 09:42:17;;;;;;;16.90;5.03;;;;;;;;;;5035993;28;20052;-70
2021/11/26 09:44:44;;;;;;;21.67;5.88;;;;;;;;;;5057912;28;20428;-69
2021/11/26 09:47:10;;;;;;;19.63;6.10;;;;;;;;;;5060783;28;20068;-70
2021/11/26 09:49:37;;;;;;;19.70;5.18;;;;;;;;;;5050435;28;20040;-70
2021/11/26 09:52:04;;;;;;;18.35;5.00;;;;;;;;;;5057331;28;20056;-70
2021/11/26 09:54:40;;;;;;;20.17;5.43;;;;;;;;;;5054800;28;20057;-70
2021/11/26 09:57:07;;;;;;;21.55;5.30;;;;;;;;;;5060990;28;20048;-70
2021/11/26 09:59:33;;;;;;;13.13;4.40;;;;;;;;;;5055470;28;20490;-70
2021/11/26 10:02:16;;;;;;;15.80;4.70;;;;;;;;;;5060471;28;20056;-70
2021/11/26 10:04:43;;;;;;;16.42;4.78;;;;;;;;;;5054040;28;20242;-70
2021/11/26 10:07:10;;;;;;;13.35;4.32;;;;;;;;;;5050386;28;20187;-70
2021/11/26 10:09:38;;;;;;;9.70;4.50;;;;;;;;;;5059401;28;20593;-69
2021/11/26 10:12:06;;;;;;;22.38;4.40;;;;;;;;;;5051027;28;20052;-70
2021/11/26 10:14:34;;;;;;;12.65;4.47;;;;;;;;;;5059365;28;20461;-70
2021/11/26 10:17:20;;;;;;;17.88;4.20;;;;;;;;;;5047053;28;20055;-70
2021/11/26 10:20:13;;;;;;;17.15;4.30;;;;;;;;;;5057433;28;20041;-69
2021/11/26 10:22:44;;;;;;;11.48;3.92;;;;;;;;;;5045587;28;20516;-70
2021/11/26 10:25:11;;;;;;;15.05;3.58;;;;;;;;;;5060777;28;20052;-70
2021/11/26 10:27:58;;;;;;;15.45;4.28;;;;;;;;;;5034903;28;20040;-70
2021/11/26 10:30:34;;;;;;;15.88;3.55;;;;;;;;;;5055651;28;20504;-70
2021/11/26 10:33:12;;;;;;;10.52;3.55;;;;;;;;;;5056074;28;20072;-70
2021/11/26 10:35:39;;;;;;;;;;;;;;;;;;5059959;28;20048;-69
2021/11/26 10:38:05;;;;;;;8.85;3.40;;;;;;;;;;5060443;28;19931;-70
2021/11/26 10:40:33;;;;;;;10.57;4.45;;;;;;;;;;5053377;28;20138;-70
2021/11/26 10:43:01;;;;;;;19.10;4.22;;;;;;;;;;5059959;28;20040;-70
2021/11/26 10:45:32;;;;;;;14.20;4.20;;;;;;;;;;5047383;28;20055;-69
2021/11/26 10:50:56;;;;;;;10.90;3.70;;;;;;;;;;5050997;28;20427;-69
2021/11/26 10:58:53;;;;;;;15.80;3.85;;;;;;;;;;5053578;28;20045;-69
2021/11/26 11:01:20;;;;;;;10.98;3.05;;;;;;;;;;5058248;28;20040;-70
2021/11/26 11:03:47;;;;;;;12.40;3.08;;;;;;;;;;5051136;28;20426;-70
2021/11/26 11:06:17;;;;;;;11.82;3.55;;;;;;;;;;5059844;28;20059;-70
2021/11/26 11:08:43;;;;;;;11.15;3.13;;;;;;;;;;5054077;28;20044;-70
2021/11/26 11:11:09;;;;;;;7.60;3.92;;;;;;;;;;5058836;28;20048;-70
2021/11/26 11:13:36;;;;;;;15.68;4.18;;;;;;;;;;5052397;28;20923;-68
2021/11/26 11:16:07;;;;;;;10.63;3.35;;;;;;;;;;5057944;28;20058;-70
2021/11/26 11:18:33;;;;;;;12.05;3.90;;;;;;;;;;5055645;28;20052;-69
2021/11/26 11:20:59;;;;;;;11.95;3.55;;;;;;;;;;5060651;28;20486;-69
2021/11/26 11:23:26;;;;;;;12.35;3.72;;;;;;;;;;5057143;28;20055;-68
2021/11/26 11:25:55;;;;;;;15.38;3.80;;;;;;;;;;5055629;28;20555;-68
2021/11/26 11:28:22;;;;;;;10.38;3.60;;;;;;;;;;5063847;28;20067;-68
2021/11/26 11:30:48;;;;;;;14.77;3.78;;;;;;;;;;5057196;28;20075;-69
2021/11/26 11:33:16;;;;;;;14.05;3.33;;;;;;;;;;5063498;28;20064;-69
2021/11/26 11:35:44;;;;;;;12.77;3.53;;;;;;;;;;5034098;28;21047;-69
2021/11/26 11:38:11;;;;;;;;;;;;;;;;;;5059146;28;20075;-69
2021/11/26 11:40:40;;;;;;;18.58;3.70;;;;;;;;;;5062547;28;19928;-69
2021/11/26 11:43:08;;;;;;;12.70;4.00;;;;;;;;;;5055967;28;20044;-69
2021/11/26 11:45:35;;;;;;;12.18;4.10;;;;;;;;;;5062266;28;20060;-69
2021/11/26 11:48:03;;;;;;;11.73;3.40;;;;;;;;;;5056200;28;20044;-69
2021/11/26 11:50:31;;;;;;;14.13;3.97;;;;;;;;;;5057839;28;20039;-69
2021/11/26 11:53:00;;;;;;;11.05;3.35;;;;;;;;;;5054650;28;20056;-69
2021/11/26 11:55:35;;;;;;;14.20;4.38;;;;;;;;;;5063063;28;20055;-70
2021/11/26 11:58:13;;;;;;;17.83;4.38;;;;;;;;;;5062827;28;20052;-69
2021/11/26 12:00:40;;;;;;;17.50;3.90;;;;;;;;;;5059053;28;20075;-69
2021/11/26 12:03:12;;;;;;;12.13;4.50;;;;;;;;;;5058062;28;20083;-68
2021/11/26 12:05:40;;;;;;;11.15;3.97;;;;;;;;;;5050850;28;20121;-68
2021/11/26 12:08:08;;;;;;;10.43;3.83;;;;;;;;;;5062836;28;20052;-69
2021/11/26 12:10:42;;;;;;;11.95;3.47;;;;;;;;;;5056385;28;20703;-68
2021/11/26 12:13:30;;;;;;;13.48;3.85;;;;;;;;;;5062060;28;20691;-68
2021/11/26 12:16:04;;;;;;;14.57;4.32;;;;;;;;;;5050468;28;20048;-69
2021/11/26 12:18:38;;;;;;;9.65;3.55;;;;;;;;;;5055033;28;20048;-69
2021/11/26 12:21:04;;;;;;;8.75;3.90;;;;;;;;;;5054293;28;20052;-68
2021/11/26 12:23:37;;;;;;;8.23;3.38;;;;;;;;;;5059994;28;20049;-68
2021/11/26 12:28:44;;;;;;;7.93;3.45;;;;;;;;;;5054541;28;20502;-68
2021/11/26 12:31:11;;;;;;;11.07;4.32;;;;;;;;;;5052997;28;20060;-68
2021/11/26 12:33:38;;;;;;;12.73;4.78;;;;;;;;;;5052740;28;20057;-68
2021/11/26 12:36:10;;;;;;;12.07;4.03;;;;;;;;;;5063525;28;20141;-68
2021/11/26 12:38:46;;;;;;;11.63;4.07;;;;;;;;;;5055285;28;20056;-68
2021/11/26 12:41:14;;;;;;;11.05;4.15;;;;;;;;;;5044347;28;20048;-68
2021/11/26 12:43:41;;;;;;;14.80;4.82;;;;;;;;;;5052502;28;21358;-68
2021/11/26 12:46:21;;;;;;;12.98;5.00;;;;;;;;;;5058415;28;20044;-68
2021/11/26 12:49:08;;;;;;;11.63;4.88;;;;;;;;;;5063227;28;20485;-68
2021/11/26 12:51:35;;;;;;;9.25;4.28;;;;;;;;;;5055864;28;20144;-68
2021/11/26 12:54:04;;;;;;;12.43;4.10;;;;;;;;;;5063919;28;20052;-68
2021/11/26 12:56:32;;;;;;;10.77;4.05;;;;;;;;;;5056615;28;20052;-67
2021/11/26 12:58:58;;;;;;;10.77;4.63;;;;;;;;;;5055977;28;20063;-69
2021/11/26 13:01:25;;;;;;;10.68;4.40;;;;;;;;;;5052369;28;20049;-67
2021/11/26 13:03:51;;;;;;;8.90;3.60;;;;;;;;;;5062471;28;20135;-70
2021/11/26 13:06:21;;;;;;;10.32;4.15;;;;;;;;;;5059315;28;20054;-70
2021/11/26 13:09:02;;;;;;;10.77;4.30;;;;;;;;;;5042458;28;20497;-69
2021/11/26 13:11:45;;;;;;;7.22;3.25;;;;;;;;;;5041198;28;20133;-67
2021/11/26 13:14:15;;;;;;;10.25;3.47;;;;;;;;;;5032121;28;20110;-67
2021/11/26 13:16:41;;;;;;;9.40;3.58;;;;;;;;;;5042249;28;20053;-70
2021/11/26 13:19:20;;;;;;;10.32;2.78;;;;;;;;;;5054994;28;20059;-68
2021/11/26 13:21:55;;;;;;;7.90;3.22;;;;;;;;;;5062205;28;20056;-68
2021/11/26 13:24:21;;;;;;;10.93;3.47;;;;;;;;;;5056155;28;20048;-68
2021/11/26 13:26:47;;;;;;;9.00;3.10;;;;;;;;;;5042584;28;20167;-68
2021/11/26 13:29:14;;;;;;;5.50;2.70;;;;;;;;;;5056210;28;20048;-68
2021/11/26 13:31:43;;;;;;;7.90;2.80;;;;;;;;;;5061490;28;20369;-68
2021/11/26 13:34:10;;;;;;;5.13;2.70;;;;;;;;;;5062113;28;20482;-68
2021/11/26 13:36:36;;;;;;;11.20;2.88;;;;;;;;;;5050641;28;20053;-68
2021/11/26 13:39:09;;;;;;;6.97;3.13;;;;;;;;;;5056922;28;20048;-68
2021/11/26 13:41:37;;;;;;;8.95;3.10;;;;;;;;;;5052517;28;20055;-68
2021/11/26 13:44:17;;;;;;;7.82;2.92;;;;;;;;;;5058623;28;20445;-68
2021/11/26 13:46:44;;;;;;;9.90;3.75;;;;;;;;;;5052611;28;20048;-68
2021/11/26 13:49:18;;;;;;;8.40;3.10;;;;;;;;;;5056604;28;20509;-69
2021/11/26 13:51:47;;;;;;;11.32;4.60;;;;;;;;;;5046291;28;20541;-68
2021/11/26 13:54:13;;;;;;;;;;;;;;;;;;5058334;28;20416;-69
2021/11/26 13:56:41;;;;;;;8.50;3.40;;;;;;;;;;5059558;28;19924;-69
2021/11/26 13:59:09;;;;;;;6.70;2.88;;;;;;;;;;5051576;28;20470;-69
2021/11/26 14:01:37;;;;;;;10.57;3.70;;;;;;;;;;5059501;28;20045;-69
2021/11/26 14:04:08;;;;;;;7.97;3.75;;;;;;;;;;5049700;28;20048;-69
2021/11/26 14:06:57;;;;;;;7.93;4.00;;;;;;;;;;5056908;28;20052;-69
2021/11/26 14:09:24;;;;;;;9.77;3.88;;;;;;;;;;5034003;28;20714;-69
2021/11/26 14:11:51;;;;;;;7.43;3.58;;;;;;;;;;5059366;28;20048;-68
2021/11/26 14:14:21;;;;;;;8.98;3.95;;;;;;;;;;5058192;28;20086;-69
2021/11/26 14:16:58;;;;;;;8.65;4.03;;;;;;;;;;5049969;28;20047;-69
2021/11/26 14:19:39;;;;;;;12.23;4.10;;;;;;;;;;5052499;28;20186;-69
2021/11/26 14:22:25;;;;;;;6.82;3.70;;;;;;;;;;5049205;28;20130;-69
2021/11/26 14:25:04;;;;;;;10.25;5.03;;;;;;;;;;5056989;28;20044;-69
2021/11/26 14:27:58;;;;;;;11.13;3.88;;;;;;;;;;5047947;28;20059;-68
2021/11/26 14:30:43;;;;;;;15.30;4.10;;;;;;;;;;5057075;28;20131;-69
2021/11/26 14:33:10;;;;;;;12.68;4.78;;;;;;;;;;5043877;28;20413;-68
2021/11/26 14:35:39;;;;;;;11.48;4.45;;;;;;;;;;5052211;28;20045;-68
2021/11/26 14:38:06;;;;;;;11.43;4.68;;;;;;;;;;5050344;28;20113;-68
2021/11/26 14:40:34;;;;;;;7.05;4.30;;;;;;;;;;5058861;28;20048;-67
2021/11/26 14:43:13;;;;;;;7.70;3.60;;;;;;;;;;5058549;28;20052;-68
2021/11/26 14:45:46;;;;;;;9.20;3.40;;;;;;;;;;5045657;28;20306;-68
2021/11/26 14:48:14;;;;;;;10.60;4.00;;;;;;;;;;5053873;28;20065;-68
2021/11/26 14:50:40;;;;;;;9.37;4.20;;;;;;;;;;5049072;28;20063;-68
2021/11/26 14:53:15;;;;;;;7.65;3.72;;;;;;;;;;5058623;28;20052;-68
2021/11/26 14:55:42;;;;;;;11.68;4.55;;;;;;;;;;5049152;28;20057;-68